Fairbanks, AK

5:42 AM AKDT on April 21, 2015 (GMT -0800)
AKDOT | | Change Station
CLOSE
Current Station
Personal Weather Station
Location: Fairbanks, AK
Elevation: 482 ft
Nearby Weather Stations

Elev 482 ft 64.84 °N, 147.71 °W | Updated 49 minutes ago

Overcast
Overcast
29 °F
Feels Like 29 °F
N
1
Wind Variable Wind from NE
Gusts 4.0 mph

Today
High -- | Low -- °F
--% Chance of Precip.
Yesterday
High -- | Low -- °F
Precip. -- in
5:54 AM 9:47 PM
Waxing Crescent, 10% visible
Pressure 29.75 in
Visibility 10.0 miles
Clouds Mostly Cloudy 6000 ft
Overcast 9000 ft
Windchill 29 °F
Dew Point 20 °F
Humidity 70%
Rainfall in
Snow Depth Not available.
UV 0 out of 12
Pollen Not available.
Air Quality Not available.
Flu Activity Sporadic
METAR PAFB 211256Z AUTO 23009KT 10SM BKN060 OVC090 M01/M07 A2973 RMK SLP074 T10111067 $ VIA AUTODIAL

More Conditions Fewer Conditions

Pressure 29.75 in
Visibility 10.0 miles
Clouds Mostly Cloudy 6000 ft
Overcast 9000 ft
Windchill 29 °F
Dew Point 20 °F
Humidity 70%
Rainfall in
Snow Depth Not available.
UV 0 out of 12
Pollen Not available.
Air Quality Not available.
Flu Activity Sporadic
METAR PAFB 211256Z AUTO 23009KT 10SM BKN060 OVC090 M01/M07 A2973 RMK SLP074 T10111067 $ VIA AUTODIAL

More Conditions Fewer Conditions

10-Day Weather Forecast

Almanac

Astronomy

Apr. 21, 2015 Rise Set
Actual Time
Civil Twilight
Nautical Twilight
Astronomical Twilight
Moon
Length of Visible Light
Length of Day
Tomorrow will be .
, % of the Moon is Illuminated

Today's Extremes

State Highs State Lows

Community

WunderPhotos

Upload Photos

1,815,383 photos uploaded!

WunderBlogs® & News

Nearby

Air Quality

  Air Quality AQ Index Pollutant
Not available.

Snow Depth

Station Depth Elevation

Earthquake Activity

City Distance Mag. Time & Date
Minimum magnitude displayed is 2.5.

Coastal Water Temperatures

Place Temperature

Stations

Nearby Weather Stations

Station Location Temp. Windchill Dew Point Humidity Wind Precip. Elev Updated Type